Talladega, AL

11:40 PM CDT on May 24, 2015 (GMT -0500)
RAWS | | Change Station
CLOSE
Current Station
Personal Weather Station
Location: Talladega, AL
Elevation: 600 ft
Nearby Weather Stations

Elev 600 ft 33.44 °N, 86.08 °W | Updated 39 minutes ago

Clear
Clear
73 °F
Feels Like 76 °F
N
2
Wind Variable Wind from SSE
Gusts 10.0 mph

Today
High -- | Low -- °F
--% Chance of Precip.
Yesterday
High -- | Low -- °F
Precip. -- in
5:38 AM 7:43 PM
Waxing Crescent, 45% visible
Pressure 30.17 in
Visibility 10.0 miles
Clouds Overcast 8000 ft
Heat Index 76 °F
Dew Point 61 °F
Humidity 65%
Rainfall in
Snow Depth Not available.
UV 0 out of 12
Pollen 6.80 out of 12
Air Quality Not available.
Flu Activity Sporadic
METAR KANB 250353Z AUTO 06004KT 10SM OVC080 24/16 A3020 RMK AO2 SLP217 T02390161

More Conditions Fewer Conditions

Pressure 30.17 in
Visibility 10.0 miles
Clouds Overcast 8000 ft
Heat Index 76 °F
Dew Point 61 °F
Humidity 65%
Rainfall in
Snow Depth Not available.
UV 0 out of 12
Pollen 6.80 out of 12
Air Quality Not available.
Flu Activity Sporadic
METAR KANB 250353Z AUTO 06004KT 10SM OVC080 24/16 A3020 RMK AO2 SLP217 T02390161

More Conditions Fewer Conditions

10-Day Weather Forecast

Almanac

Astronomy

May. 24, 2015 Rise Set
Actual Time
Civil Twilight
Nautical Twilight
Astronomical Twilight
Moon
Length of Visible Light
Length of Day
Tomorrow will be .
, % of the Moon is Illuminated

Today's Extremes

State Highs State Lows

Community

WunderPhotos

Upload Photos

1,823,955 photos uploaded!

WunderBlogs® & News

Nearby

Air Quality

  Air Quality AQ Index Pollutant
Not available.

Snow Depth

Station Depth Elevation

Earthquake Activity

City Distance Mag. Time & Date
Minimum magnitude displayed is 2.5.

Coastal Water Temperatures

Place Temperature

Stations

Nearby Weather Stations

Station Location Temp. Windchill Dew Point Humidity Wind Precip. Elev Updated Type